createdAt,value
2022-11-01T00:01:50.471Z,6.30
2022-11-01T00:04:17.864Z,5.80
2022-11-01T00:06:44.876Z,6.73
2022-11-01T00:09:11.840Z,7.13
2022-11-01T00:11:38.449Z,6.30
2022-11-01T00:14:05.237Z,5.60
2022-11-01T00:16:31.849Z,6.13
2022-11-01T00:18:58.859Z,5.90
2022-11-01T00:21:26.207Z,5.40
2022-11-01T00:23:52.735Z,6.13
2022-11-01T00:26:21.652Z,5.53
2022-11-01T00:28:49.068Z,5.33
2022-11-01T00:31:17.379Z,4.87
2022-11-01T00:33:44.367Z,6.67
2022-11-01T00:36:11.393Z,5.23
2022-11-01T00:38:37.971Z,5.43
2022-11-01T00:41:05.124Z,5.30
2022-11-01T00:43:35.715Z,5.00
2022-11-01T00:46:03.466Z,5.80
2022-11-01T00:48:30.435Z,6.20
2022-11-01T00:50:56.997Z,5.00
2022-11-01T00:53:23.526Z,6.70
2022-11-01T00:55:50.041Z,5.40
2022-11-01T00:58:16.616Z,4.80
2022-11-01T01:00:43.266Z,5.70
2022-11-01T01:03:10.177Z,5.77
2022-11-01T01:05:37.083Z,4.97
2022-11-01T01:08:03.881Z,4.93
2022-11-01T01:10:30.507Z,5.20
2022-11-01T01:12:57.129Z,5.60
2022-11-01T01:15:23.740Z,5.13
2022-11-01T01:17:50.278Z,5.10
2022-11-01T01:20:16.930Z,5.30
2022-11-01T01:22:43.528Z,4.43
2022-11-01T01:25:10.785Z,4.90
2022-11-01T01:27:37.983Z,4.67
2022-11-01T01:30:07.490Z,5.00
2022-11-01T01:32:34.398Z,5.20
2022-11-01T01:35:01.101Z,4.80
2022-11-01T01:37:27.777Z,4.67
2022-11-01T01:39:54.577Z,5.20
2022-11-01T01:42:33.151Z,5.07
2022-11-01T01:45:15.261Z,4.37
2022-11-01T01:47:45.004Z,4.00
2022-11-01T01:50:23.316Z,4.77
2022-11-01T01:52:58.503Z,5.43
2022-11-01T01:55:42.589Z,5.07
2022-11-01T01:58:11.263Z,4.30
2022-11-01T02:00:38.841Z,4.17
2022-11-01T02:03:06.600Z,4.33
2022-11-01T02:05:53.543Z,5.20
2022-11-01T02:08:27.727Z,3.77
2022-11-01T02:10:56.804Z,4.23
2022-11-01T02:13:23.640Z,4.50
2022-11-01T02:16:06.137Z,4.93
2022-11-01T02:18:41.290Z,4.47
2022-11-01T02:21:19.844Z,4.20
2022-11-01T02:24:25.295Z,4.43
2022-11-01T02:27:14.569Z,4.00
2022-11-01T02:30:05.240Z,4.37
2022-11-01T02:32:56.456Z,4.13
2022-11-01T02:35:43.085Z,4.10
2022-11-01T02:38:15.406Z,3.97
2022-11-01T02:40:59.214Z,3.93
2022-11-01T02:43:49.815Z,3.80
2022-11-01T02:46:38.427Z,4.40
2022-11-01T02:49:06.709Z,3.90
2022-11-01T02:51:35.258Z,3.90
2022-11-01T02:54:41.338Z,4.13
2022-11-01T02:57:17.023Z,4.00
2022-11-01T02:59:46.244Z,4.10
2022-11-01T03:02:39.391Z,4.00
2022-11-01T03:05:14.219Z,4.37
2022-11-01T03:07:44.790Z,4.00
2022-11-01T03:10:12.084Z,3.67
2022-11-01T03:12:59.205Z,3.50
2022-11-01T03:15:33.838Z,4.23
2022-11-01T03:18:08.139Z,4.53
2022-11-01T03:20:48.807Z,4.30
2022-11-01T03:23:25.619Z,3.67
2022-11-01T03:25:55.681Z,3.83
2022-11-01T03:28:27.180Z,3.30
2022-11-01T03:31:02.134Z,3.27
2022-11-01T03:33:32.099Z,3.37
2022-11-01T03:36:13.411Z,3.47
2022-11-01T03:38:52.534Z,4.00
2022-11-01T03:41:21.809Z,4.13
2022-11-01T03:43:48.520Z,3.67
2022-11-01T03:46:15.865Z,3.50
2022-11-01T03:48:42.527Z,4.20
2022-11-01T03:51:09.323Z,4.07
2022-11-01T03:53:36.253Z,3.90
2022-11-01T03:56:02.887Z,3.17
2022-11-01T03:58:41.452Z,3.63
2022-11-01T04:01:13.164Z,3.40
2022-11-01T04:03:40.060Z,3.63
2022-11-01T04:06:06.995Z,3.33
2022-11-01T04:08:33.875Z,3.77
2022-11-01T04:11:00.774Z,3.20
2022-11-01T04:13:27.390Z,3.37
2022-11-01T04:16:12.857Z,4.20
2022-11-01T04:18:58.243Z,3.23
2022-11-01T04:21:26.130Z,4.07
2022-11-01T04:23:52.987Z,3.70
2022-11-01T04:26:23.694Z,4.03
2022-11-01T04:28:57.204Z,3.57
2022-11-01T04:31:37.416Z,3.10
2022-11-01T04:34:05.265Z,3.63
2022-11-01T04:36:32.369Z,3.13
2022-11-01T04:38:59.052Z,3.53
2022-11-01T04:41:28.423Z,3.17
2022-11-01T04:43:57.080Z,3.10
2022-11-01T04:46:24.003Z,3.43
2022-11-01T04:48:50.515Z,3.30
2022-11-01T04:51:17.235Z,3.20
2022-11-01T04:53:43.954Z,3.23
2022-11-01T04:56:13.368Z,3.50
2022-11-01T04:58:44.743Z,3.30
2022-11-01T05:01:13.570Z,3.73
2022-11-01T05:03:40.248Z,3.17
2022-11-01T05:06:07.385Z,2.93
2022-11-01T05:08:34.052Z,3.40
2022-11-01T05:11:00.662Z,2.90
2022-11-01T05:13:27.695Z,3.27
2022-11-01T05:16:18.036Z,3.67
2022-11-01T05:18:42.773Z,3.40
2022-11-01T05:21:09.414Z,3.07
2022-11-01T05:23:36.003Z,3.33
2022-11-01T05:26:02.607Z,3.40
2022-11-01T05:28:29.175Z,3.20
2022-11-01T05:30:58.015Z,3.10
2022-11-01T05:33:24.609Z,2.67
2022-11-01T05:35:51.151Z,2.83
2022-11-01T05:38:17.703Z,2.60
2022-11-01T05:40:44.238Z,2.57
2022-11-01T05:43:11.221Z,3.30
2022-11-01T05:45:37.806Z,2.33
2022-11-01T05:48:05.372Z,2.77
2022-11-01T05:50:32.398Z,2.40
2022-11-01T05:53:06.889Z,2.70
2022-11-01T05:55:33.548Z,2.77
2022-11-01T05:58:00.364Z,2.30
2022-11-01T06:00:27.122Z,2.10
2022-11-01T06:02:53.698Z,2.07
2022-11-01T06:05:20.662Z,1.87
2022-11-01T06:07:47.228Z,1.83
2022-11-01T06:10:13.781Z,1.90
2022-11-01T06:12:40.780Z,1.87
2022-11-01T06:15:07.803Z,1.77
2022-11-01T06:17:34.418Z,1.70
2022-11-01T06:20:01.016Z,1.37
2022-11-01T06:22:27.638Z,1.20
2022-11-01T06:24:54.204Z,1.40
2022-11-01T06:27:20.754Z,1.17
2022-11-01T06:29:47.714Z,1.30
2022-11-01T06:32:14.241Z,1.17
2022-11-01T06:34:44.091Z,1.50
2022-11-01T06:37:11.771Z,1.50
2022-11-01T06:39:38.359Z,1.20
2022-11-01T06:42:05.484Z,1.47
2022-11-01T06:44:32.093Z,1.73
2022-11-01T06:46:58.612Z,1.43
2022-11-01T06:49:25.660Z,1.13
2022-11-01T06:51:52.180Z,1.00
2022-11-01T06:54:19.159Z,1.30
2022-11-01T06:56:48.678Z,1.33
2022-11-01T06:59:16.736Z,1.67
2022-11-01T07:01:44.122Z,1.50
2022-11-01T07:06:42.838Z,1.30
2022-11-01T07:09:10.163Z,1.40
2022-11-01T07:11:36.914Z,1.57
2022-11-01T07:14:03.951Z,1.50
2022-11-01T07:16:31.679Z,1.27
2022-11-01T07:18:58.514Z,1.70
2022-11-01T07:21:25.056Z,1.20
2022-11-01T07:23:53.940Z,1.57
2022-11-01T07:26:20.916Z,1.27
2022-11-01T07:28:47.511Z,1.50
2022-11-01T07:31:14.068Z,1.37
2022-11-01T07:33:40.707Z,1.13
2022-11-01T07:36:07.803Z,1.40
2022-11-01T07:38:34.341Z,1.80
2022-11-01T07:41:02.822Z,1.63
2022-11-01T07:43:29.855Z,1.07
2022-11-01T07:46:00.416Z,1.60
2022-11-01T07:48:27.820Z,1.27
2022-11-01T07:50:56.575Z,1.30
2022-11-01T07:53:23.150Z,1.23
2022-11-01T07:55:51.351Z,1.30
2022-11-01T07:58:17.892Z,0.93
2022-11-01T08:00:44.976Z,1.70
2022-11-01T08:03:14.239Z,1.10
2022-11-01T08:05:41.780Z,1.13
2022-11-01T08:08:09.085Z,1.30
2022-11-01T08:10:36.846Z,1.30
2022-11-01T08:13:09.088Z,0.90
2022-11-01T08:15:36.348Z,2.13
2022-11-01T08:18:03.283Z,1.30
2022-11-01T08:20:30.726Z,0.90
2022-11-01T08:22:57.741Z,0.90
2022-11-01T08:25:24.748Z,0.90
2022-11-01T08:27:51.714Z,1.40
2022-11-01T08:30:19.446Z,1.57
2022-11-01T08:32:46.430Z,1.00
2022-11-01T08:35:13.045Z,1.13
2022-11-01T08:37:52.577Z,1.00
2022-11-01T08:40:20.119Z,0.80
2022-11-01T08:42:47.347Z,1.20
2022-11-01T08:45:15.443Z,1.10
2022-11-01T08:47:42.664Z,0.90
2022-11-01T08:50:11.611Z,0.90
2022-11-01T08:52:39.167Z,1.00
2022-11-01T08:55:07.366Z,0.90
2022-11-01T08:57:33.928Z,1.27
2022-11-01T09:00:00.484Z,0.63
2022-11-01T09:02:27.494Z,1.43
2022-11-01T09:04:54.034Z,1.27
2022-11-01T09:07:21.129Z,1.00
2022-11-01T09:09:47.729Z,0.80
2022-11-01T09:12:15.085Z,1.30
2022-11-01T09:14:42.015Z,1.57
2022-11-01T09:17:09.030Z,0.90
2022-11-01T09:19:37.380Z,1.50
2022-11-01T09:22:03.947Z,0.70
2022-11-01T09:24:30.540Z,1.30
2022-11-01T09:26:57.093Z,1.30
2022-11-01T09:29:23.769Z,1.47
2022-11-01T09:31:54.276Z,1.70
2022-11-01T09:34:21.749Z,1.20
2022-11-01T09:36:48.835Z,1.30
2022-11-01T09:39:17.616Z,1.30
2022-11-01T09:41:49.649Z,1.30
2022-11-01T09:44:20.181Z,0.97
2022-11-01T09:47:01.411Z,1.37
2022-11-01T09:49:33.128Z,1.27
2022-11-01T09:51:59.871Z,1.27
2022-11-01T09:54:28.391Z,1.37
2022-11-01T09:57:26.632Z,1.10
2022-11-01T10:00:13.220Z,1.30
2022-11-01T10:06:03.914Z,1.17
2022-11-01T10:08:45.015Z,1.50
2022-11-01T10:11:50.179Z,1.53
2022-11-01T10:14:53.509Z,1.93
2022-11-01T10:17:52.514Z,1.23
2022-11-01T10:20:24.284Z,2.83
2022-11-01T10:22:51.367Z,1.30
2022-11-01T10:25:29.045Z,1.33
2022-11-01T10:27:58.657Z,1.30
2022-11-01T10:30:27.051Z,1.30
2022-11-01T10:33:14.828Z,1.20
2022-11-01T10:35:44.894Z,1.10
2022-11-01T10:38:49.961Z,1.70
2022-11-01T10:41:26.785Z,1.20
2022-11-01T10:43:58.928Z,1.30
2022-11-01T10:46:30.978Z,1.20
2022-11-01T10:49:01.597Z,1.47
2022-11-01T10:51:30.255Z,1.00
2022-11-01T10:54:01.876Z,1.30
2022-11-01T10:56:35.815Z,1.27
2022-11-01T10:59:18.475Z,0.80
2022-11-01T11:01:45.627Z,1.00
2022-11-01T11:04:15.763Z,1.30
2022-11-01T11:06:43.421Z,0.90
2022-11-01T11:09:25.146Z,1.17
2022-11-01T11:11:55.090Z,1.27
2022-11-01T11:14:22.334Z,1.40
2022-11-01T11:16:55.818Z,1.07
2022-11-01T11:19:33.163Z,1.30
2022-11-01T11:22:01.614Z,1.00
2022-11-01T11:24:40.058Z,1.10
2022-11-01T11:27:32.856Z,1.50
2022-11-01T11:30:05.501Z,1.33
2022-11-01T11:32:34.266Z,0.90
2022-11-01T11:35:28.341Z,1.53
2022-11-01T11:38:03.884Z,17.57
2022-11-01T11:40:40.617Z,16.00
2022-11-01T11:43:21.300Z,18.87
2022-11-01T11:46:09.616Z,17.80
2022-11-01T11:48:56.421Z,14.10
2022-11-01T11:51:25.549Z,10.40
2022-11-01T11:54:07.062Z,7.23
2022-11-01T11:56:33.717Z,7.17
2022-11-01T11:59:16.804Z,6.10
2022-11-01T12:01:43.669Z,5.30
2022-11-01T12:04:16.237Z,5.73
2022-11-01T12:06:46.530Z,4.47
2022-11-01T12:09:50.247Z,5.10
2022-11-01T12:12:42.574Z,4.37
2022-11-01T12:15:35.764Z,4.60
2022-11-01T12:18:18.071Z,4.80
2022-11-01T12:20:50.739Z,3.17
2022-11-01T12:23:26.744Z,3.00
2022-11-01T12:25:55.165Z,2.97
2022-11-01T12:28:33.880Z,2.87
2022-11-01T12:31:13.134Z,2.00
2022-11-01T12:34:00.329Z,2.60
2022-11-01T12:36:34.180Z,2.33
2022-11-01T12:39:12.821Z,2.33
2022-11-01T12:41:51.657Z,2.47
2022-11-01T12:44:32.383Z,2.53
2022-11-01T12:47:07.611Z,2.80
2022-11-01T12:49:45.038Z,2.40
2022-11-01T12:52:25.845Z,2.00
2022-11-01T12:55:26.709Z,2.20
2022-11-01T12:57:54.926Z,2.43
2022-11-01T13:00:21.917Z,1.70
2022-11-01T13:03:08.435Z,1.83
2022-11-01T13:06:05.905Z,3.07
2022-11-01T13:09:12.962Z,1.97
2022-11-01T13:11:56.341Z,5.00
2022-11-01T13:14:41.703Z,8.30
2022-11-01T13:17:11.332Z,5.47
2022-11-01T13:20:00.007Z,4.27
2022-11-01T13:22:39.875Z,3.87
2022-11-01T13:25:29.991Z,3.50
2022-11-01T13:28:13.107Z,2.90
2022-11-01T13:30:47.645Z,2.90
2022-11-01T13:33:49.849Z,2.47
2022-11-01T13:36:30.314Z,2.70
2022-11-01T13:39:22.955Z,2.43
2022-11-01T13:41:54.867Z,2.53
2022-11-01T13:44:26.569Z,2.40
2022-11-01T13:47:29.750Z,1.57
2022-11-01T13:50:15.461Z,2.30
2022-11-01T13:52:49.810Z,2.27
2022-11-01T13:55:36.297Z,1.37
2022-11-01T13:58:06.104Z,1.60
2022-11-01T14:00:43.207Z,2.00
2022-11-01T14:03:32.573Z,1.80
2022-11-01T14:06:11.428Z,1.60
2022-11-01T14:08:42.917Z,1.67
2022-11-01T14:11:34.067Z,1.50
2022-11-01T14:14:20.576Z,1.33
2022-11-01T14:16:47.181Z,1.60
2022-11-01T14:19:20.850Z,1.40
2022-11-01T14:21:49.592Z,1.47
2022-11-01T14:24:24.107Z,1.10
2022-11-01T14:27:19.062Z,1.20
2022-11-01T14:29:50.275Z,1.10
2022-11-01T14:32:18.714Z,1.10
2022-11-01T14:34:51.956Z,1.07
2022-11-01T14:37:22.594Z,1.07
2022-11-01T14:40:00.257Z,1.17
2022-11-01T14:42:36.836Z,1.07
2022-11-01T14:45:10.626Z,1.00
2022-11-01T14:47:40.804Z,1.40
2022-11-01T14:50:28.264Z,1.57
2022-11-01T14:53:03.189Z,1.17
2022-11-01T14:55:38.527Z,1.30
2022-11-01T14:58:29.167Z,2.53
2022-11-01T15:00:55.846Z,1.30
2022-11-01T15:03:23.000Z,1.77
2022-11-01T15:05:52.858Z,1.17
2022-11-01T15:08:56.643Z,0.87
2022-11-01T15:11:27.974Z,1.00
2022-11-01T15:13:55.578Z,1.30
2022-11-01T15:16:26.622Z,1.07
2022-11-01T15:18:56.957Z,0.93
2022-11-01T15:21:29.033Z,0.90
2022-11-01T15:23:58.453Z,1.27
2022-11-01T15:26:30.240Z,1.10
2022-11-01T15:29:05.490Z,0.90
2022-11-01T15:31:34.761Z,1.67
2022-11-01T15:34:19.967Z,2.37
2022-11-01T15:36:46.697Z,1.30
2022-11-01T15:39:20.915Z,1.63
2022-11-01T15:41:48.230Z,1.10
2022-11-01T15:44:29.610Z,1.20
2022-11-01T15:47:01.924Z,2.73
2022-11-01T15:49:50.763Z,4.47
2022-11-01T15:56:15.089Z,1.47
2022-11-01T15:59:14.796Z,1.00
2022-11-01T16:01:41.773Z,1.13
2022-11-01T16:04:11.415Z,1.10
2022-11-01T16:06:43.909Z,1.10
2022-11-01T16:09:29.966Z,1.10
2022-11-01T16:11:59.587Z,0.97
2022-11-01T16:14:37.098Z,0.70
2022-11-01T16:17:25.054Z,0.97
2022-11-01T16:19:52.682Z,1.57
2022-11-01T16:22:41.968Z,0.90
2022-11-01T16:25:11.204Z,0.90
2022-11-01T16:28:02.970Z,1.00
2022-11-01T16:30:48.020Z,1.00
2022-11-01T16:33:30.058Z,1.13
2022-11-01T16:36:23.128Z,1.17
2022-11-01T16:38:54.453Z,1.13
2022-11-01T16:41:38.077Z,1.03
2022-11-01T16:44:16.008Z,1.10
2022-11-01T16:46:42.914Z,1.23
2022-11-01T16:49:18.352Z,0.80
2022-11-01T16:51:45.068Z,1.00
2022-11-01T16:54:12.623Z,0.83
2022-11-01T16:57:34.199Z,1.50
2022-11-01T17:00:01.565Z,1.20
2022-11-01T17:02:30.200Z,1.27
2022-11-01T17:05:06.308Z,0.97
2022-11-01T17:07:33.038Z,1.07
2022-11-01T17:09:59.567Z,1.37
2022-11-01T17:12:26.101Z,0.87
2022-11-01T17:14:53.464Z,0.90
2022-11-01T17:17:24.382Z,1.70
2022-11-01T17:19:58.181Z,0.97
2022-11-01T17:22:32.365Z,0.93
2022-11-01T17:24:59.041Z,1.13
2022-11-01T17:27:26.804Z,0.90
2022-11-01T17:29:53.515Z,0.90
2022-11-01T17:32:20.078Z,1.20
2022-11-01T17:34:49.113Z,1.77
2022-11-01T17:37:17.158Z,0.90
2022-11-01T17:39:43.931Z,1.20
2022-11-01T17:42:10.624Z,0.83
2022-11-01T17:44:37.201Z,0.67
2022-11-01T17:47:03.777Z,1.20
2022-11-01T17:49:30.293Z,0.80
2022-11-01T17:51:56.875Z,0.80
2022-11-01T17:54:23.606Z,0.70
2022-11-01T17:56:50.910Z,1.23
2022-11-01T17:59:17.503Z,1.13
2022-11-01T18:01:44.870Z,0.73
2022-11-01T18:04:11.599Z,0.77
2022-11-01T18:06:40.158Z,0.90
2022-11-01T18:09:21.034Z,0.87
2022-11-01T18:11:54.364Z,1.00
2022-11-01T18:14:32.893Z,0.87
2022-11-01T18:17:16.484Z,0.73
2022-11-01T18:20:17.080Z,1.17
2022-11-01T18:22:53.627Z,1.03
2022-11-01T18:25:36.995Z,0.90
2022-11-01T18:28:18.348Z,1.00
2022-11-01T18:30:54.703Z,1.33
2022-11-01T18:33:44.386Z,0.90
2022-11-01T18:36:32.453Z,0.60
2022-11-01T18:39:10.856Z,1.20
2022-11-01T18:41:37.505Z,0.83
2022-11-01T18:44:10.518Z,0.73
2022-11-01T18:46:48.575Z,0.90
2022-11-01T18:49:15.166Z,0.80
2022-11-01T18:51:41.768Z,1.00
2022-11-01T18:54:08.283Z,1.00
2022-11-01T18:56:39.373Z,1.27
2022-11-01T18:59:38.184Z,0.97
2022-11-01T19:02:10.831Z,0.70
2022-11-01T19:04:39.602Z,0.70
2022-11-01T19:07:12.570Z,0.67
2022-11-01T19:09:44.820Z,0.70
2022-11-01T19:12:27.988Z,0.70
2022-11-01T19:15:03.594Z,1.07
2022-11-01T19:17:37.193Z,0.77
2022-11-01T19:20:22.911Z,0.73
2022-11-01T19:22:49.735Z,0.60
2022-11-01T19:25:34.527Z,0.90
2022-11-01T19:28:04.265Z,0.80
2022-11-01T19:30:32.884Z,0.90
2022-11-01T19:33:29.079Z,0.80
2022-11-01T19:35:57.053Z,0.80
2022-11-01T19:38:23.942Z,0.57
2022-11-01T19:40:52.779Z,0.73
2022-11-01T19:43:21.321Z,0.70
2022-11-01T19:45:50.966Z,0.70
2022-11-01T19:48:22.240Z,0.67
2022-11-01T19:50:49.103Z,0.87
2022-11-01T19:53:24.811Z,0.70
2022-11-01T19:55:59.552Z,0.60
2022-11-01T19:58:45.643Z,0.70
2022-11-01T20:01:19.601Z,0.73
2022-11-01T20:03:50.601Z,0.80
2022-11-01T20:06:23.021Z,0.50
2022-11-01T20:08:51.523Z,0.60
2022-11-01T20:11:18.155Z,0.70
2022-11-01T20:13:44.947Z,0.73
2022-11-01T20:16:11.665Z,0.70
2022-11-01T20:18:38.373Z,0.53
2022-11-01T20:21:06.323Z,0.60
2022-11-01T20:23:34.012Z,0.60
2022-11-01T20:26:01.799Z,0.60
2022-11-01T20:28:28.494Z,0.60
2022-11-01T20:30:55.988Z,0.70
2022-11-01T20:33:25.164Z,0.60
2022-11-01T20:35:52.596Z,0.60
2022-11-01T20:40:47.109Z,0.63
2022-11-01T20:43:13.656Z,0.50
2022-11-01T20:45:41.492Z,0.70
2022-11-01T20:48:08.208Z,0.70
2022-11-01T20:50:35.454Z,0.70
2022-11-01T20:53:02.698Z,0.60
2022-11-01T20:55:29.370Z,0.53
2022-11-01T20:57:56.291Z,0.60
2022-11-01T21:00:22.871Z,0.70
2022-11-01T21:02:49.463Z,0.70
2022-11-01T21:05:16.312Z,0.80
2022-11-01T21:07:46.901Z,0.50
2022-11-01T21:10:31.288Z,0.67
2022-11-01T21:13:00.250Z,0.73
2022-11-01T21:15:34.939Z,0.83
2022-11-01T21:18:07.467Z,0.90
2022-11-01T21:20:45.365Z,0.57
2022-11-01T21:23:20.967Z,0.50
2022-11-01T21:25:59.318Z,0.50
2022-11-01T21:28:30.532Z,0.70
2022-11-01T21:31:09.855Z,0.70
2022-11-01T21:33:38.930Z,0.70
2022-11-01T21:36:20.837Z,0.60
2022-11-01T21:38:59.433Z,0.70
2022-11-01T21:41:34.649Z,0.57
2022-11-01T21:44:12.018Z,0.63
2022-11-01T21:46:38.587Z,0.60
2022-11-01T21:49:22.061Z,0.57
2022-11-01T21:51:48.631Z,0.60
2022-11-01T21:54:15.140Z,0.50
2022-11-01T21:56:41.978Z,0.60
2022-11-01T21:59:08.540Z,0.50
2022-11-01T22:01:35.231Z,0.50
2022-11-01T22:04:02.438Z,0.50
2022-11-01T22:06:28.991Z,0.50
2022-11-01T22:08:55.540Z,0.60
2022-11-01T22:11:23.812Z,0.63
2022-11-01T22:13:50.662Z,0.40
2022-11-01T22:16:17.279Z,0.60
2022-11-01T22:18:44.023Z,0.43
2022-11-01T22:21:10.549Z,0.40
2022-11-01T22:23:37.076Z,0.50
2022-11-01T22:26:03.653Z,0.53
2022-11-01T22:28:30.186Z,0.60
2022-11-01T22:30:56.709Z,0.77
2022-11-01T22:33:23.252Z,0.50
2022-11-01T22:35:49.776Z,0.60
2022-11-01T22:38:19.748Z,1.30
2022-11-01T22:43:24.381Z,0.80
2022-11-01T22:45:52.842Z,0.60
2022-11-01T22:48:22.478Z,0.77
2022-11-01T22:50:49.688Z,0.50
2022-11-01T22:53:22.567Z,0.70
2022-11-01T22:55:52.092Z,0.60
2022-11-01T22:58:33.536Z,0.70
2022-11-01T23:01:00.755Z,0.80
2022-11-01T23:03:31.408Z,0.60
2022-11-01T23:06:01.532Z,0.80
2022-11-01T23:08:31.957Z,0.70
2022-11-01T23:10:59.093Z,0.60
2022-11-01T23:13:47.889Z,1.00
2022-11-01T23:16:34.619Z,0.60
2022-11-01T23:19:03.557Z,1.20
2022-11-01T23:21:30.147Z,0.70
2022-11-01T23:23:56.727Z,0.70
2022-11-01T23:26:23.858Z,0.80
2022-11-01T23:28:54.164Z,0.77
2022-11-01T23:31:21.895Z,0.70
2022-11-01T23:33:49.815Z,0.67
2022-11-01T23:36:24.387Z,0.80
2022-11-01T23:41:36.652Z,0.80
2022-11-01T23:44:29.611Z,0.80
2022-11-01T23:47:04.319Z,0.50
2022-11-01T23:49:32.882Z,0.57
2022-11-01T23:52:00.303Z,0.50
2022-11-01T23:54:43.952Z,0.60
2022-11-01T23:57:18.354Z,0.53
2022-11-01T23:59:45.304Z,0.70
